createdAt,value
2023-05-24T00:00:55.349Z,4.30
2023-05-24T00:03:30.435Z,5.20
2023-05-24T00:05:57.297Z,5.80
2023-05-24T00:08:24.013Z,6.00
2023-05-24T00:10:50.782Z,5.10
2023-05-24T00:13:17.858Z,6.10
2023-05-24T00:15:44.558Z,5.40
2023-05-24T00:18:11.256Z,4.90
2023-05-24T00:20:38.091Z,5.60
2023-05-24T00:23:04.966Z,5.10
2023-05-24T00:25:31.646Z,6.10
2023-05-24T00:27:58.331Z,5.80
2023-05-24T00:30:25.850Z,6.90
2023-05-24T00:32:55.475Z,5.40
2023-05-24T00:35:23.268Z,5.70
2023-05-24T00:37:50.274Z,5.40
2023-05-24T00:40:16.967Z,5.50
2023-05-24T00:42:43.816Z,6.20
2023-05-24T00:45:10.583Z,7.00
2023-05-24T00:47:37.342Z,6.90
2023-05-24T00:50:04.428Z,7.00
2023-05-24T00:52:31.357Z,7.80
2023-05-24T00:54:58.112Z,8.20
2023-05-24T00:57:24.782Z,7.60
2023-05-24T00:59:52.126Z,7.20
2023-05-24T01:02:18.816Z,6.90
2023-05-24T01:04:48.518Z,7.70
2023-05-24T01:07:16.591Z,6.60
2023-05-24T01:09:56.309Z,7.10
2023-05-24T01:12:32.016Z,6.20
2023-05-24T01:15:01.695Z,6.70
2023-05-24T01:17:32.063Z,6.40
2023-05-24T01:20:09.740Z,6.20
2023-05-24T01:22:42.604Z,6.60
2023-05-24T01:25:15.435Z,6.40
2023-05-24T01:27:42.779Z,5.80
2023-05-24T01:30:09.855Z,7.10
2023-05-24T01:32:37.947Z,6.80
2023-05-24T01:35:06.311Z,6.50
2023-05-24T01:37:33.024Z,6.60
2023-05-24T01:40:00.438Z,7.10
2023-05-24T01:42:36.052Z,7.10
2023-05-24T01:45:05.852Z,7.40
2023-05-24T01:47:46.764Z,6.60
2023-05-24T01:50:47.567Z,7.70
2023-05-24T01:53:15.322Z,6.70
2023-05-24T01:55:43.239Z,6.60
2023-05-24T01:58:10.924Z,6.70
2023-05-24T02:00:38.597Z,5.20
2023-05-24T02:03:06.389Z,5.30
2023-05-24T02:05:33.434Z,6.50
2023-05-24T02:08:05.329Z,6.10
2023-05-24T02:10:32.115Z,6.70
2023-05-24T02:12:59.120Z,6.10
2023-05-24T02:15:29.925Z,6.50
2023-05-24T02:17:58.137Z,6.50
2023-05-24T02:20:25.015Z,6.40
2023-05-24T02:22:51.790Z,7.20
2023-05-24T02:25:18.447Z,6.50
2023-05-24T02:27:46.730Z,6.90
2023-05-24T02:30:13.525Z,6.60
2023-05-24T02:32:41.025Z,6.40
2023-05-24T02:35:07.732Z,6.20
2023-05-24T02:37:35.428Z,6.30
2023-05-24T02:40:02.104Z,6.50
2023-05-24T02:42:28.801Z,6.20
2023-05-24T02:44:55.512Z,7.20
2023-05-24T02:47:22.802Z,6.60
2023-05-24T02:49:49.658Z,7.90
2023-05-24T02:52:21.140Z,7.70
2023-05-24T02:54:48.076Z,7.10
2023-05-24T02:57:16.215Z,6.70
2023-05-24T02:59:43.329Z,8.20
2023-05-24T03:02:13.250Z,7.40
2023-05-24T03:04:39.945Z,7.20
2023-05-24T03:07:08.431Z,7.10
2023-05-24T03:09:35.182Z,7.20
2023-05-24T03:12:02.254Z,7.10
2023-05-24T03:14:30.120Z,7.80
2023-05-24T03:16:56.769Z,6.10
2023-05-24T03:19:23.536Z,7.30
2023-05-24T03:21:50.399Z,7.30
2023-05-24T03:24:17.680Z,7.30
2023-05-24T03:26:44.826Z,7.30
2023-05-24T03:29:11.535Z,7.10
2023-05-24T03:31:40.372Z,6.20
2023-05-24T03:34:07.605Z,6.50
2023-05-24T03:36:36.031Z,6.00
2023-05-24T03:39:04.146Z,6.50
2023-05-24T03:41:33.711Z,7.40
2023-05-24T03:44:00.518Z,7.30
2023-05-24T03:46:28.981Z,6.20
2023-05-24T03:48:55.823Z,5.40
2023-05-24T03:51:28.834Z,6.00
2023-05-24T03:53:56.808Z,6.00
2023-05-24T03:56:23.772Z,6.20
2023-05-24T03:58:51.785Z,6.30
2023-05-24T04:01:32.047Z,5.50
2023-05-24T04:04:00.854Z,5.70
2023-05-24T04:06:30.612Z,5.90
2023-05-24T04:08:59.279Z,4.50
2023-05-24T04:11:29.389Z,5.30
2023-05-24T04:13:57.157Z,4.90
2023-05-24T04:16:25.606Z,5.70
2023-05-24T04:18:52.972Z,5.00
2023-05-24T04:21:19.978Z,5.00
2023-05-24T04:23:46.929Z,5.60
2023-05-24T04:26:17.156Z,5.00
2023-05-24T04:28:45.074Z,5.10
2023-05-24T04:31:15.977Z,5.00
2023-05-24T04:33:42.730Z,4.80
2023-05-24T04:36:11.068Z,8.00
2023-05-24T04:38:38.380Z,8.40
2023-05-24T04:41:08.049Z,8.50
2023-05-24T04:43:34.805Z,7.50
2023-05-24T04:46:01.766Z,9.40
2023-05-24T04:48:28.544Z,7.40
2023-05-24T04:50:55.932Z,6.90
2023-05-24T04:53:22.876Z,6.80
2023-05-24T04:55:50.045Z,7.20
2023-05-24T04:58:16.946Z,7.60
2023-05-24T05:00:44.342Z,7.60
2023-05-24T05:03:11.280Z,7.20
2023-05-24T05:05:38.227Z,5.60
2023-05-24T05:08:05.889Z,6.20
2023-05-24T05:10:32.756Z,5.50
2023-05-24T05:12:59.714Z,6.60
2023-05-24T05:15:27.181Z,6.90
2023-05-24T05:17:53.960Z,5.80
2023-05-24T05:20:20.845Z,5.00
2023-05-24T05:22:48.127Z,6.60
2023-05-24T05:25:15.066Z,6.50
2023-05-24T05:27:41.797Z,6.50
2023-05-24T05:30:09.015Z,6.00
2023-05-24T05:32:35.982Z,6.40
2023-05-24T05:35:03.023Z,6.40
2023-05-24T05:37:30.671Z,5.90
2023-05-24T05:39:57.333Z,6.00
2023-05-24T05:42:24.101Z,5.90
2023-05-24T05:44:52.112Z,5.40
2023-05-24T05:47:18.812Z,6.60
2023-05-24T05:49:45.591Z,5.90
2023-05-24T05:52:12.385Z,6.30
2023-05-24T05:54:39.067Z,5.60
2023-05-24T05:57:07.715Z,5.90
2023-05-24T05:59:35.672Z,6.40
2023-05-24T06:02:03.079Z,5.70
2023-05-24T06:04:29.897Z,6.20
2023-05-24T06:06:56.628Z,6.20
2023-05-24T06:09:23.393Z,5.80
2023-05-24T06:11:50.138Z,5.40
2023-05-24T06:14:18.017Z,5.20
2023-05-24T06:16:45.638Z,5.00
2023-05-24T06:19:13.206Z,5.50
2023-05-24T06:21:46.567Z,4.50
2023-05-24T06:24:20.071Z,4.20
2023-05-24T06:26:47.246Z,4.00
2023-05-24T06:29:13.969Z,3.60
2023-05-24T06:31:40.719Z,4.40
2023-05-24T06:34:07.436Z,4.10
2023-05-24T06:36:35.515Z,4.20
2023-05-24T06:39:03.465Z,4.20
2023-05-24T06:41:30.250Z,5.40
2023-05-24T06:43:56.875Z,4.40
2023-05-24T06:46:23.674Z,4.50
2023-05-24T06:48:50.442Z,4.30
2023-05-24T06:51:17.349Z,4.30
2023-05-24T06:53:44.095Z,4.20
2023-05-24T06:56:10.765Z,4.80
2023-05-24T06:58:37.495Z,5.70
2023-05-24T07:01:04.511Z,4.40
2023-05-24T07:03:31.915Z,4.60
2023-05-24T07:05:58.754Z,4.40
2023-05-24T07:08:25.948Z,4.40
2023-05-24T07:10:56.552Z,4.10
2023-05-24T07:13:23.241Z,4.70
2023-05-24T07:15:50.563Z,4.20
2023-05-24T07:18:17.262Z,4.10
2023-05-24T07:20:44.322Z,3.90
2023-05-24T07:23:11.708Z,4.70
2023-05-24T07:25:38.455Z,4.40
2023-05-24T07:28:05.484Z,4.40
2023-05-24T07:30:32.951Z,3.90
2023-05-24T07:32:59.838Z,4.00
2023-05-24T07:35:28.177Z,3.40
2023-05-24T07:37:54.924Z,4.00
2023-05-24T07:40:22.758Z,3.30
2023-05-24T07:42:49.427Z,4.20
2023-05-24T07:45:16.125Z,3.40
2023-05-24T07:47:42.850Z,3.70
2023-05-24T07:50:10.057Z,3.90
2023-05-24T07:52:38.278Z,3.90
2023-05-24T07:55:05.891Z,3.70
2023-05-24T07:57:33.220Z,3.60
2023-05-24T08:00:06.570Z,3.40
2023-05-24T08:02:38.671Z,3.60
2023-05-24T08:05:06.055Z,3.30
2023-05-24T08:07:32.959Z,3.70
2023-05-24T08:09:59.693Z,2.80
2023-05-24T08:12:26.436Z,2.90
2023-05-24T08:14:53.064Z,2.80
2023-05-24T08:17:19.768Z,3.00
2023-05-24T08:19:46.501Z,2.90
2023-05-24T08:22:13.271Z,2.60
2023-05-24T08:24:40.281Z,2.40
2023-05-24T08:27:08.114Z,2.70
2023-05-24T08:29:35.322Z,2.40
2023-05-24T08:32:02.357Z,2.20
2023-05-24T08:34:29.720Z,2.90
2023-05-24T08:36:56.359Z,2.50
2023-05-24T08:39:23.355Z,3.50
2023-05-24T08:42:04.850Z,2.50
2023-05-24T08:44:45.472Z,3.00
2023-05-24T08:47:12.813Z,2.00
2023-05-24T08:49:40.618Z,2.00
2023-05-24T08:52:07.555Z,2.20
2023-05-24T08:54:36.070Z,2.50
2023-05-24T08:57:02.984Z,2.30
2023-05-24T08:59:29.698Z,2.60
2023-05-24T09:01:57.206Z,2.00
2023-05-24T09:04:24.267Z,2.40
2023-05-24T09:06:51.728Z,2.20
2023-05-24T09:09:20.973Z,2.20
2023-05-24T09:11:51.358Z,2.40
2023-05-24T09:14:18.390Z,2.00
2023-05-24T09:16:45.338Z,2.20
2023-05-24T09:19:13.572Z,1.50
2023-05-24T09:21:40.438Z,2.10
2023-05-24T09:24:07.828Z,1.60
2023-05-24T09:26:36.201Z,2.40
2023-05-24T09:29:06.606Z,2.10
2023-05-24T09:31:34.202Z,2.20
2023-05-24T09:34:00.973Z,1.70
2023-05-24T09:36:32.563Z,1.60
2023-05-24T09:39:07.492Z,1.60
2023-05-24T09:41:34.287Z,1.70
2023-05-24T09:44:01.411Z,1.40
2023-05-24T09:46:29.365Z,1.70
2023-05-24T09:48:59.710Z,1.80
2023-05-24T09:51:26.515Z,1.70
2023-05-24T09:53:56.360Z,1.90
2023-05-24T09:56:24.430Z,2.00
2023-05-24T09:58:51.253Z,2.40
2023-05-24T10:01:18.637Z,1.90
2023-05-24T10:03:52.216Z,2.10
2023-05-24T10:06:19.278Z,2.30
2023-05-24T10:08:48.197Z,2.00
2023-05-24T10:11:15.003Z,2.20
2023-05-24T10:13:41.795Z,2.30
2023-05-24T10:16:08.533Z,2.10
2023-05-24T10:18:35.731Z,2.50
2023-05-24T10:21:07.460Z,2.00
2023-05-24T10:23:36.169Z,1.80
2023-05-24T10:26:06.086Z,1.60
2023-05-24T10:28:38.043Z,1.60
2023-05-24T10:31:07.989Z,2.10
2023-05-24T10:33:36.929Z,2.10
2023-05-24T10:36:06.524Z,2.20
2023-05-24T10:38:36.731Z,1.70
2023-05-24T10:41:04.542Z,1.70
2023-05-24T10:43:31.492Z,1.70
2023-05-24T10:45:58.476Z,1.60
2023-05-24T10:48:25.161Z,1.60
2023-05-24T10:50:52.620Z,2.90
2023-05-24T10:53:23.466Z,1.70
2023-05-24T10:55:52.144Z,1.90
2023-05-24T10:58:19.908Z,1.80
2023-05-24T11:00:48.523Z,1.90
2023-05-24T11:03:23.081Z,1.60
2023-05-24T11:05:51.201Z,1.90
2023-05-24T11:08:32.626Z,1.60
2023-05-24T11:13:41.407Z,1.80
2023-05-24T11:16:08.307Z,1.90
2023-05-24T11:18:38.593Z,1.80
2023-05-24T11:21:06.227Z,2.00
2023-05-24T11:23:33.962Z,1.60
2023-05-24T11:26:03.118Z,1.80
2023-05-24T11:28:30.441Z,1.80
2023-05-24T11:30:57.164Z,1.90
2023-05-24T11:33:24.083Z,2.10
2023-05-24T11:35:51.678Z,1.60
2023-05-24T11:38:22.238Z,1.90
2023-05-24T11:40:50.934Z,1.70
2023-05-24T11:43:19.046Z,1.60
2023-05-24T11:45:51.385Z,2.00
2023-05-24T11:48:18.835Z,1.90
2023-05-24T11:50:49.852Z,1.60
2023-05-24T11:53:18.249Z,2.60
2023-05-24T11:55:45.044Z,2.40
2023-05-24T11:58:42.330Z,1.80
2023-05-24T12:01:22.432Z,1.60
2023-05-24T12:03:50.586Z,1.70
2023-05-24T12:06:17.712Z,1.90
2023-05-24T12:08:44.761Z,1.60
2023-05-24T12:11:11.901Z,1.80
2023-05-24T12:13:39.985Z,1.50
2023-05-24T12:16:07.909Z,1.60
2023-05-24T12:18:36.230Z,1.70
2023-05-24T12:21:06.756Z,1.50
2023-05-24T12:23:34.883Z,1.50
2023-05-24T12:26:01.777Z,1.40
2023-05-24T12:28:38.623Z,1.60
2023-05-24T12:31:05.934Z,1.70
2023-05-24T12:33:32.887Z,2.00
2023-05-24T12:35:59.651Z,1.20
2023-05-24T12:38:26.561Z,1.70
2023-05-24T12:41:08.122Z,1.80
2023-05-24T12:43:40.189Z,1.70
2023-05-24T12:46:07.218Z,1.60
2023-05-24T12:48:33.969Z,1.80
2023-05-24T12:51:01.716Z,1.60
2023-05-24T12:53:28.511Z,1.50
2023-05-24T12:55:55.691Z,1.70
2023-05-24T12:58:22.588Z,2.00
2023-05-24T13:00:51.499Z,1.60
2023-05-24T13:03:18.548Z,1.70
2023-05-24T13:05:46.776Z,2.50
2023-05-24T13:08:14.181Z,1.80
2023-05-24T13:10:41.151Z,2.00
2023-05-24T13:13:08.051Z,2.00
2023-05-24T13:15:35.492Z,1.90
2023-05-24T13:18:02.410Z,2.30
2023-05-24T13:20:29.280Z,1.90
2023-05-24T13:22:55.980Z,1.90
2023-05-24T13:25:22.774Z,1.90
2023-05-24T13:27:49.663Z,2.30
2023-05-24T13:30:16.974Z,3.50
2023-05-24T13:32:43.759Z,1.40
2023-05-24T13:35:10.935Z,1.60
2023-05-24T13:37:37.635Z,2.70
2023-05-24T13:40:05.598Z,2.30
2023-05-24T13:42:32.342Z,1.60
2023-05-24T13:44:59.234Z,2.00
2023-05-24T13:47:35.862Z,1.70
2023-05-24T13:50:06.317Z,1.70
2023-05-24T13:52:33.283Z,1.80
2023-05-24T13:55:00.948Z,1.80
2023-05-24T13:57:33.669Z,1.80
2023-05-24T14:00:10.626Z,1.70
2023-05-24T14:02:38.770Z,1.70
2023-05-24T14:05:24.750Z,1.60
2023-05-24T14:07:53.954Z,1.70
2023-05-24T14:10:21.764Z,1.80
2023-05-24T14:12:59.363Z,2.00
2023-05-24T14:15:35.892Z,1.90
2023-05-24T14:18:07.454Z,1.40
2023-05-24T14:20:37.335Z,1.60
2023-05-24T14:23:04.482Z,1.80
2023-05-24T14:25:31.633Z,1.90
2023-05-24T14:27:58.701Z,1.90
2023-05-24T14:30:25.798Z,1.70
2023-05-24T14:32:52.455Z,2.00
2023-05-24T14:35:19.780Z,1.80
2023-05-24T14:37:46.651Z,1.90
2023-05-24T14:40:13.561Z,2.50
2023-05-24T14:42:40.842Z,1.90
2023-05-24T14:45:08.246Z,1.70
2023-05-24T14:47:35.260Z,2.00
2023-05-24T14:50:02.115Z,2.00
2023-05-24T14:52:28.879Z,1.60
2023-05-24T14:54:55.653Z,1.80
2023-05-24T14:57:22.493Z,1.60
2023-05-24T14:59:49.336Z,2.60
2023-05-24T15:02:16.641Z,2.10
2023-05-24T15:04:43.641Z,2.20
2023-05-24T15:07:11.159Z,2.30
2023-05-24T15:09:38.092Z,1.90
2023-05-24T15:12:05.578Z,2.40
2023-05-24T15:14:32.372Z,2.60
2023-05-24T15:16:59.245Z,2.00
2023-05-24T15:19:26.299Z,1.70
2023-05-24T15:21:53.461Z,1.50
2023-05-24T15:24:20.325Z,2.20
2023-05-24T15:26:47.026Z,2.20
2023-05-24T15:29:13.721Z,1.90
2023-05-24T15:31:40.884Z,2.00
2023-05-24T15:34:08.110Z,2.30
2023-05-24T15:36:35.957Z,2.40
2023-05-24T15:39:02.935Z,2.20
2023-05-24T15:41:29.646Z,1.90
2023-05-24T15:43:57.820Z,2.30
2023-05-24T15:46:24.919Z,2.00
2023-05-24T15:48:51.898Z,2.30
2023-05-24T15:53:48.917Z,2.20
2023-05-24T15:56:16.148Z,2.40
2023-05-24T15:58:43.173Z,2.20
2023-05-24T16:01:09.933Z,2.10
2023-05-24T16:03:37.572Z,1.90
2023-05-24T16:06:05.129Z,2.50
2023-05-24T16:08:32.094Z,2.10
2023-05-24T16:10:59.158Z,1.90
2023-05-24T16:13:25.961Z,1.80
2023-05-24T16:15:52.782Z,2.10
2023-05-24T16:18:23.508Z,2.20
2023-05-24T16:20:50.847Z,2.30
2023-05-24T16:23:18.244Z,2.40
2023-05-24T16:25:48.873Z,2.20
2023-05-24T16:28:15.945Z,2.20
2023-05-24T16:30:43.196Z,3.50
2023-05-24T16:33:10.201Z,2.30
2023-05-24T16:35:37.294Z,2.10
2023-05-24T16:38:04.033Z,2.10
2023-05-24T16:40:30.775Z,2.30
2023-05-24T16:42:57.633Z,2.50
2023-05-24T16:45:24.569Z,2.10
2023-05-24T16:47:51.368Z,2.00
2023-05-24T16:50:18.538Z,2.10
2023-05-24T16:52:45.204Z,2.60
2023-05-24T16:55:12.541Z,2.10
2023-05-24T16:57:39.274Z,2.30
2023-05-24T17:00:07.124Z,2.50
2023-05-24T17:02:34.371Z,2.80
2023-05-24T17:05:01.249Z,2.80
2023-05-24T17:07:28.479Z,2.70
2023-05-24T17:09:55.555Z,2.80
2023-05-24T17:12:22.682Z,2.70
2023-05-24T17:14:49.834Z,3.00
2023-05-24T17:17:16.907Z,3.40
2023-05-24T17:19:43.811Z,3.40
2023-05-24T17:22:10.707Z,4.40
2023-05-24T17:24:37.761Z,3.70
2023-05-24T17:27:04.643Z,4.60
2023-05-24T17:29:31.779Z,4.70
2023-05-24T17:31:58.550Z,3.10
2023-05-24T17:34:25.605Z,3.60
2023-05-24T17:36:52.322Z,3.60
2023-05-24T17:39:21.122Z,4.30
2023-05-24T17:41:47.993Z,3.30
2023-05-24T17:44:14.836Z,3.50
2023-05-24T17:46:41.899Z,2.90
2023-05-24T17:49:11.025Z,4.30
2023-05-24T17:51:38.499Z,3.60
2023-05-24T17:54:05.918Z,3.60
2023-05-24T17:56:32.990Z,3.70
2023-05-24T17:59:00.011Z,3.40
2023-05-24T18:01:28.725Z,2.80
2023-05-24T18:03:55.854Z,2.70
2023-05-24T18:06:22.899Z,2.80
2023-05-24T18:08:49.661Z,3.00
2023-05-24T18:11:16.892Z,3.20
2023-05-24T18:13:43.842Z,2.90
2023-05-24T18:16:11.920Z,2.60
2023-05-24T18:18:39.257Z,2.60
2023-05-24T18:21:07.056Z,3.10
2023-05-24T18:23:36.982Z,2.30
2023-05-24T18:26:06.003Z,2.40
2023-05-24T18:28:39.016Z,3.00
2023-05-24T18:31:13.965Z,2.90
2023-05-24T18:33:40.772Z,3.00
2023-05-24T18:36:08.388Z,3.00
2023-05-24T18:38:35.981Z,3.10
2023-05-24T18:41:05.749Z,3.10
2023-05-24T18:43:33.299Z,3.40
2023-05-24T18:46:00.533Z,5.70
2023-05-24T18:48:27.365Z,2.70
2023-05-24T18:50:54.438Z,2.80
2023-05-24T18:53:21.490Z,2.90
2023-05-24T18:55:48.470Z,3.90
2023-05-24T18:58:15.571Z,3.10
2023-05-24T19:00:42.838Z,3.40
2023-05-24T19:03:11.358Z,3.30
2023-05-24T19:05:40.637Z,2.60
2023-05-24T19:08:09.499Z,3.80
2023-05-24T19:10:36.487Z,3.40
2023-05-24T19:13:03.483Z,3.60
2023-05-24T19:15:30.249Z,3.40
2023-05-24T19:17:57.368Z,3.40
2023-05-24T19:20:24.588Z,4.10
2023-05-24T19:22:52.533Z,3.80
2023-05-24T19:25:20.777Z,3.70
2023-05-24T19:27:59.432Z,3.50
2023-05-24T19:30:28.122Z,2.90
2023-05-24T19:32:55.483Z,3.80
2023-05-24T19:35:22.782Z,3.30
2023-05-24T19:37:49.935Z,3.60
2023-05-24T19:40:18.791Z,3.40
2023-05-24T19:42:45.840Z,4.20
2023-05-24T19:45:12.930Z,5.10
2023-05-24T19:47:40.800Z,4.30
2023-05-24T19:50:08.063Z,3.90
2023-05-24T19:52:35.142Z,3.30
2023-05-24T19:55:02.163Z,3.40
2023-05-24T19:57:28.810Z,3.70
2023-05-24T19:59:55.946Z,3.60
2023-05-24T20:02:22.765Z,4.00
2023-05-24T20:04:49.789Z,3.50
2023-05-24T20:07:16.797Z,4.60
2023-05-24T20:09:43.775Z,3.10
2023-05-24T20:12:11.513Z,3.60
2023-05-24T20:14:38.599Z,3.30
2023-05-24T20:17:05.255Z,3.30
2023-05-24T20:19:31.923Z,3.30
2023-05-24T20:21:58.822Z,3.60
2023-05-24T20:24:25.918Z,3.50
2023-05-24T20:26:52.567Z,3.40
2023-05-24T20:29:19.789Z,3.60
2023-05-24T20:31:46.903Z,3.70
2023-05-24T20:34:13.652Z,3.30
2023-05-24T20:36:42.738Z,3.40
2023-05-24T20:39:10.380Z,3.70
2023-05-24T20:41:37.026Z,3.40
2023-05-24T20:44:03.893Z,3.10
2023-05-24T20:46:31.201Z,2.90
2023-05-24T20:48:58.221Z,3.60
2023-05-24T20:51:24.999Z,2.50
2023-05-24T20:53:52.777Z,2.90
2023-05-24T20:56:20.880Z,3.20
2023-05-24T20:58:52.108Z,3.00
2023-05-24T21:01:19.773Z,3.80
2023-05-24T21:03:46.724Z,3.10
2023-05-24T21:06:13.591Z,3.70
2023-05-24T21:08:40.339Z,3.00
2023-05-24T21:11:07.044Z,3.80
2023-05-24T21:13:33.752Z,3.10
2023-05-24T21:16:01.690Z,3.70
2023-05-24T21:18:28.426Z,4.50
2023-05-24T21:20:55.189Z,3.90
2023-05-24T21:23:21.887Z,3.80
2023-05-24T21:25:48.711Z,4.10
2023-05-24T21:28:15.416Z,4.60
2023-05-24T21:30:42.164Z,4.10
2023-05-24T21:33:08.960Z,3.80
2023-05-24T21:35:36.488Z,4.10
2023-05-24T21:38:03.253Z,4.10
2023-05-24T21:40:30.040Z,4.20
2023-05-24T21:42:56.761Z,4.40
2023-05-24T21:45:23.538Z,4.80
2023-05-24T21:47:50.337Z,4.90
2023-05-24T21:50:17.127Z,4.60
2023-05-24T21:52:43.897Z,4.00
2023-05-24T21:55:10.553Z,4.40
2023-05-24T21:57:37.646Z,5.00
2023-05-24T22:00:04.765Z,4.90
2023-05-24T22:02:32.188Z,4.40
2023-05-24T22:04:59.020Z,4.40
2023-05-24T22:07:25.783Z,4.40
2023-05-24T22:09:52.489Z,4.20
2023-05-24T22:12:19.461Z,4.90
2023-05-24T22:14:46.614Z,4.30
2023-05-24T22:17:13.732Z,4.50
2023-05-24T22:19:40.803Z,4.60
2023-05-24T22:22:08.209Z,4.30
2023-05-24T22:24:35.350Z,4.40
2023-05-24T22:27:02.089Z,4.50
2023-05-24T22:29:28.863Z,4.50
2023-05-24T22:31:55.717Z,3.90
2023-05-24T22:34:26.820Z,4.00
2023-05-24T22:36:54.051Z,3.90
2023-05-24T22:39:21.242Z,4.50
2023-05-24T22:41:47.957Z,4.00
2023-05-24T22:44:15.245Z,3.80
2023-05-24T22:46:42.102Z,3.70
2023-05-24T22:49:12.692Z,3.60
2023-05-24T22:51:43.654Z,3.80
2023-05-24T22:54:11.187Z,3.40
2023-05-24T22:56:38.136Z,3.70
2023-05-24T22:59:05.072Z,4.00
2023-05-24T23:01:32.311Z,3.80
2023-05-24T23:04:08.096Z,4.30
2023-05-24T23:06:46.236Z,3.80
2023-05-24T23:09:12.992Z,4.40
2023-05-24T23:11:42.217Z,3.90
2023-05-24T23:14:10.647Z,4.20
2023-05-24T23:16:39.765Z,4.00
2023-05-24T23:19:06.530Z,3.30
2023-05-24T23:21:33.333Z,4.20
2023-05-24T23:24:03.366Z,4.00
2023-05-24T23:26:30.394Z,4.20
2023-05-24T23:28:57.141Z,4.10
2023-05-24T23:31:23.898Z,4.30
2023-05-24T23:33:51.714Z,3.90
2023-05-24T23:36:18.482Z,4.00
2023-05-24T23:38:45.186Z,3.80
2023-05-24T23:41:11.896Z,4.30
2023-05-24T23:43:38.675Z,4.10
2023-05-24T23:46:06.226Z,4.70
2023-05-24T23:48:33.124Z,4.60
2023-05-24T23:50:59.979Z,4.40
2023-05-24T23:53:26.633Z,4.70
2023-05-24T23:55:53.349Z,4.40
2023-05-24T23:58:20.217Z,4.20
